Time;durP1;ratioP1;P1;durP2;ratioP2;P2;SDS_P1;SDS_P2;PMS_P1;PMS_P2;Temp;Humidity;BMP_temperature;BMP_pressure;BME280_temperature;BME280_humidity;BME280_pressure;Samples;Min_cycle;Max_cycle;Signal;HPM_P1;HPM_P2
2023/10/20 00:01:46;;;;;;;27.30;23.37;;;;;;;;;;5041620;28;20187;-78
2023/10/20 00:04:12;;;;;;;26.77;23.27;;;;;;;;;;5076084;28;20199;-78
2023/10/20 00:06:39;;;;;;;34.13;24.17;;;;;;;;;;5058202;28;20215;-78
2023/10/20 00:09:06;;;;;;;31.07;24.33;;;;;;;;;;5042966;28;20206;-79
2023/10/20 00:11:32;;;;;;;36.07;26.57;;;;;;;;;;5056164;28;20172;-82
2023/10/20 00:13:58;;;;;;;32.17;26.13;;;;;;;;;;5022135;28;20278;-82
2023/10/20 00:16:25;;;;;;;33.70;26.13;;;;;;;;;;5025646;28;20218;-82
2023/10/20 00:18:51;;;;;;;29.93;26.53;;;;;;;;;;5052203;28;20198;-82
2023/10/20 00:21:18;;;;;;;35.20;26.47;;;;;;;;;;5056684;28;20194;-82
2023/10/20 00:23:44;;;;;;;28.73;25.73;;;;;;;;;;5069107;28;20207;-82
2023/10/20 00:26:11;;;;;;;31.33;26.97;;;;;;;;;;5041546;28;20183;-82
2023/10/20 00:28:37;;;;;;;31.47;26.67;;;;;;;;;;5041140;28;20191;-81
2023/10/20 00:31:03;;;;;;;33.13;26.77;;;;;;;;;;5035004;28;20195;-82
2023/10/20 00:33:29;;;;;;;31.87;27.63;;;;;;;;;;5041428;28;20192;-82
2023/10/20 00:35:55;;;;;;;36.70;28.20;;;;;;;;;;5053913;28;20202;-82
2023/10/20 00:38:21;;;;;;;32.53;28.27;;;;;;;;;;5041114;28;20187;-82
2023/10/20 00:40:47;;;;;;;30.70;26.83;;;;;;;;;;5062364;28;20190;-82
2023/10/20 00:43:13;;;;;;;30.90;27.03;;;;;;;;;;5046271;28;20235;-82
2023/10/20 00:45:40;;;;;;;35.00;28.73;;;;;;;;;;5057449;28;20215;-82
2023/10/20 00:48:07;;;;;;;31.17;27.83;;;;;;;;;;5073043;28;20233;-83
2023/10/20 00:50:33;;;;;;;32.93;28.43;;;;;;;;;;5037248;28;20176;-82
2023/10/20 00:53:00;;;;;;;35.40;28.00;;;;;;;;;;5048533;28;20235;-82
2023/10/20 00:55:26;;;;;;;31.20;27.33;;;;;;;;;;5067608;28;20230;-82
2023/10/20 00:57:56;;;;;;;37.87;30.07;;;;;;;;;;5057797;28;20195;-82
2023/10/20 01:00:22;;;;;;;36.90;29.07;;;;;;;;;;5072818;28;20194;-78
2023/10/20 01:02:48;;;;;;;32.87;29.37;;;;;;;;;;5057314;28;20215;-78
2023/10/20 01:05:14;;;;;;;34.70;28.83;;;;;;;;;;5057179;28;20176;-78
2023/10/20 01:07:41;;;;;;;36.77;29.77;;;;;;;;;;5057384;28;20204;-78
2023/10/20 01:10:09;;;;;;;33.03;28.43;;;;;;;;;;5054405;28;20183;-78
2023/10/20 01:12:35;;;;;;;34.60;29.07;;;;;;;;;;5054732;28;20271;-78
2023/10/20 01:15:02;;;;;;;36.13;28.93;;;;;;;;;;5061680;28;20199;-78
2023/10/20 01:17:28;;;;;;;37.57;30.20;;;;;;;;;;5073863;28;20183;-82
2023/10/20 01:19:55;;;;;;;34.23;29.23;;;;;;;;;;5056876;28;20179;-82
2023/10/20 01:22:22;;;;;;;38.63;29.40;;;;;;;;;;5073226;28;20281;-82
2023/10/20 01:24:48;;;;;;;36.70;29.70;;;;;;;;;;5060056;28;20259;-80
2023/10/20 01:27:14;;;;;;;34.37;29.03;;;;;;;;;;5070162;28;20179;-80
2023/10/20 01:29:40;;;;;;;35.60;29.67;;;;;;;;;;5071241;28;20186;-80
2023/10/20 01:32:06;;;;;;;35.03;29.23;;;;;;;;;;5072529;28;20179;-79
2023/10/20 01:34:32;;;;;;;38.43;30.83;;;;;;;;;;5073062;28;20201;-78
2023/10/20 01:36:58;;;;;;;35.53;29.60;;;;;;;;;;5053157;28;20271;-78
2023/10/20 01:39:25;;;;;;;39.47;30.60;;;;;;;;;;5069647;28;20226;-78
2023/10/20 01:41:51;;;;;;;37.33;29.57;;;;;;;;;;5053768;28;20192;-77
2023/10/20 01:44:17;;;;;;;34.40;30.07;;;;;;;;;;5065012;28;20236;-77
2023/10/20 01:46:49;;;;;;;38.07;29.93;;;;;;;;;;5073329;28;20178;-78
2023/10/20 01:49:15;;;;;;;37.03;31.63;;;;;;;;;;5073140;28;20186;-78
2023/10/20 01:51:41;;;;;;;38.93;30.20;;;;;;;;;;5052127;28;20237;-79
2023/10/20 01:54:07;;;;;;;40.40;30.23;;;;;;;;;;5051223;28;20188;-78
2023/10/20 01:56:33;;;;;;;43.93;30.90;;;;;;;;;;5043402;28;20193;-79
2023/10/20 01:58:59;;;;;;;33.93;30.23;;;;;;;;;;5032064;28;20191;-79
2023/10/20 02:01:26;;;;;;;37.93;31.17;;;;;;;;;;5051214;28;20180;-78
2023/10/20 02:03:52;;;;;;;36.97;31.13;;;;;;;;;;5030171;28;20216;-78
2023/10/20 02:06:18;;;;;;;37.57;31.47;;;;;;;;;;5023464;28;20188;-78
2023/10/20 02:08:44;;;;;;;39.47;32.37;;;;;;;;;;5053705;28;20204;-78
2023/10/20 02:11:11;;;;;;;38.73;32.07;;;;;;;;;;5037439;28;20187;-78
2023/10/20 02:13:38;;;;;;;40.20;30.80;;;;;;;;;;5032998;28;20271;-78
2023/10/20 02:16:07;;;;;;;36.40;30.87;;;;;;;;;;5044814;28;20194;-78
2023/10/20 02:18:33;;;;;;;42.10;32.13;;;;;;;;;;5052767;28;20238;-79
2023/10/20 02:21:03;;;;;;;36.70;31.73;;;;;;;;;;5037996;28;20196;-79
2023/10/20 02:23:30;;;;;;;42.73;32.73;;;;;;;;;;5036174;28;20212;-77
2023/10/20 02:26:00;;;;;;;41.00;32.47;;;;;;;;;;5052772;28;20188;-77
2023/10/20 02:28:26;;;;;;;42.07;32.90;;;;;;;;;;5036385;28;20193;-78
2023/10/20 02:30:52;;;;;;;43.80;33.70;;;;;;;;;;5052903;28;20206;-78
2023/10/20 02:33:19;;;;;;;43.90;32.63;;;;;;;;;;5053722;28;20191;-78
2023/10/20 02:35:45;;;;;;;45.80;35.03;;;;;;;;;;5052552;28;20184;-77
2023/10/20 02:38:11;;;;;;;50.07;34.20;;;;;;;;;;5046108;28;20230;-77
2023/10/20 02:40:37;;;;;;;46.30;34.03;;;;;;;;;;5037874;28;20188;-78
2023/10/20 02:43:03;;;;;;;53.13;36.10;;;;;;;;;;5033670;28;20200;-77
2023/10/20 02:45:29;;;;;;;50.20;36.27;;;;;;;;;;5029564;28;20202;-77
2023/10/20 02:47:55;;;;;;;55.83;37.47;;;;;;;;;;5052496;28;20240;-77
2023/10/20 02:50:21;;;;;;;53.63;37.40;;;;;;;;;;5053024;28;20180;-77
2023/10/20 02:52:47;;;;;;;53.17;37.50;;;;;;;;;;5051946;28;20228;-78
2023/10/20 02:55:13;;;;;;;53.40;38.60;;;;;;;;;;5019407;28;20184;-78
2023/10/20 02:57:39;;;;;;;50.90;37.03;;;;;;;;;;5035913;28;20188;-78
2023/10/20 03:00:14;;;;;;;57.57;37.60;;;;;;;;;;5049495;28;20310;-78
2023/10/20 03:02:40;;;;;;;54.93;36.90;;;;;;;;;;5035632;28;20216;-78
2023/10/20 03:05:07;;;;;;;60.30;38.67;;;;;;;;;;5035828;28;20173;-78
2023/10/20 03:07:39;;;;;;;51.00;36.03;;;;;;;;;;5086016;22;20231;-86
2023/10/20 03:10:14;;;;;;;54.97;37.30;;;;;;;;;;5080457;28;20183;-86
2023/10/20 03:15:26;;;;;;;60.27;37.33;;;;;;;;;;5078002;28;20205;-86
2023/10/20 03:17:55;;;;;;;62.03;37.63;;;;;;;;;;5085807;28;20194;-86
2023/10/20 03:20:28;;;;;;;54.37;35.63;;;;;;;;;;5082755;28;20189;-86
2023/10/20 03:23:04;;;;;;;56.33;36.77;;;;;;;;;;5084247;28;20235;-86
2023/10/20 03:25:36;;;;;;;57.13;37.03;;;;;;;;;;5097262;28;20190;-86
2023/10/20 03:28:23;;;;;;;55.30;37.37;;;;;;;;;;5087801;28;20187;-86
2023/10/20 03:30:53;;;;;;;57.83;36.93;;;;;;;;;;5087155;28;20187;-86
2023/10/20 03:33:19;;;;;;;58.23;37.03;;;;;;;;;;5084201;28;20306;-86
2023/10/20 03:36:03;;;;;;;57.07;37.23;;;;;;;;;;5087693;28;20329;-86
2023/10/20 03:38:40;;;;;;;;;;;;;;;;;;;;;
2023/10/20 03:41:29;;;;;;;57.87;36.67;;;;;;;;;;5088576;28;20187;-86
2023/10/20 03:44:04;;;;;;;56.40;35.73;;;;;;;;;;5083889;28;20238;-86
2023/10/20 03:46:45;;;;;;;54.90;36.33;;;;;;;;;;5088683;28;20189;-87
2023/10/20 03:49:15;;;;;;;54.67;36.33;;;;;;;;;;5088786;28;20182;-87
2023/10/20 03:51:53;;;;;;;56.37;36.40;;;;;;;;;;5075941;28;20183;-86
2023/10/20 03:54:24;;;;;;;53.43;35.10;;;;;;;;;;5081806;28;20218;-87
2023/10/20 03:56:50;;;;;;;55.03;36.00;;;;;;;;;;5089880;28;20215;-85
2023/10/20 03:59:21;;;;;;;54.13;35.53;;;;;;;;;;5085350;28;20191;-86
2023/10/20 04:01:47;;;;;;;53.40;35.73;;;;;;;;;;5078961;28;20210;-86
2023/10/20 04:04:19;;;;;;;56.03;36.40;;;;;;;;;;5075604;28;20171;-86
2023/10/20 04:06:45;;;;;;;52.00;36.50;;;;;;;;;;5084510;28;20230;-86
2023/10/20 04:09:11;;;;;;;57.00;36.73;;;;;;;;;;5082847;28;20236;-86
2023/10/20 04:11:40;;;;;;;58.70;37.20;;;;;;;;;;5086405;28;20186;-87
2023/10/20 04:14:06;;;;;;;54.73;36.30;;;;;;;;;;5083463;28;20187;-87
2023/10/20 04:16:47;;;;;;;52.87;36.33;;;;;;;;;;5088269;28;20197;-87
2023/10/20 04:19:15;;;;;;;54.57;36.20;;;;;;;;;;5078650;28;20188;-87
2023/10/20 04:21:45;;;;;;;54.20;36.10;;;;;;;;;;5085094;28;20274;-87
2023/10/20 04:24:14;;;;;;;53.20;34.43;;;;;;;;;;5087915;28;20210;-87
2023/10/20 04:26:43;;;;;;;57.67;36.27;;;;;;;;;;5082216;28;20245;-87
2023/10/20 04:51:13;;;;;;;47.50;34.63;;;;;;;;;;5058314;28;20187;-86
2023/10/20 04:59:10;;;;;;;48.00;31.83;;;;;;;;;;5088514;28;20311;-86
2023/10/20 05:01:58;;;;;;;50.33;31.47;;;;;;;;;;5077778;28;20190;-85
2023/10/20 05:04:36;;;;;;;38.67;28.97;;;;;;;;;;5079755;28;20198;-86
2023/10/20 05:07:05;;;;;;;38.60;27.20;;;;;;;;;;5085197;28;20234;-86
2023/10/20 05:09:55;;;;;;;37.60;26.07;;;;;;;;;;5077889;28;20244;-85
2023/10/20 05:12:28;;;;;;;34.00;25.90;;;;;;;;;;5083855;28;20211;-86
2023/10/20 05:15:01;;;;;;;33.60;25.47;;;;;;;;;;5081769;28;20228;-86
2023/10/20 05:17:29;;;;;;;33.93;25.30;;;;;;;;;;5085251;28;20225;-86
2023/10/20 05:20:06;;;;;;;31.63;24.40;;;;;;;;;;5064099;28;20196;-86
2023/10/20 05:22:35;;;;;;;32.70;25.33;;;;;;;;;;5069890;28;20198;-86
2023/10/20 05:25:02;;;;;;;33.10;24.77;;;;;;;;;;5086409;28;20175;-86
2023/10/20 05:27:37;;;;;;;31.23;23.63;;;;;;;;;;5073974;28;20182;-86
2023/10/20 05:30:13;;;;;;;29.57;22.67;;;;;;;;;;5078939;28;20185;-87
2023/10/20 05:32:56;;;;;;;30.30;21.97;;;;;;;;;;5086984;28;20195;-85
2023/10/20 05:35:22;;;;;;;26.33;21.40;;;;;;;;;;5092500;28;20229;-85
2023/10/20 05:37:59;;;;;;;;;;;;;;;;;;;;;
2023/10/20 05:40:25;;;;;;;22.27;18.67;;;;;;;;;;5074472;28;20193;-85
2023/10/20 05:43:07;;;;;;;23.23;18.23;;;;;;;;;;5074813;28;20215;-86
2023/10/20 05:45:41;;;;;;;20.30;16.60;;;;;;;;;;5067618;28;20199;-86
2023/10/20 05:48:10;;;;;;;19.13;14.97;;;;;;;;;;5085361;28;20265;-85
2023/10/20 05:50:39;;;;;;;17.13;15.30;;;;;;;;;;5085267;28;20187;-87
2023/10/20 05:53:06;;;;;;;19.00;14.53;;;;;;;;;;5085119;28;20197;-86
2023/10/20 05:55:38;;;;;;;17.00;14.43;;;;;;;;;;5081831;28;20187;-86
2023/10/20 05:58:06;;;;;;;18.57;14.47;;;;;;;;;;5076936;28;20187;-86
2023/10/20 06:00:50;;;;;;;17.47;14.37;;;;;;;;;;5082839;28;20193;-84
2023/10/20 06:03:19;;;;;;;17.27;14.63;;;;;;;;;;5080197;28;20210;-84
2023/10/20 06:05:54;;;;;;;17.93;15.60;;;;;;;;;;5084456;28;20178;-85
2023/10/20 06:08:22;;;;;;;18.57;16.10;;;;;;;;;;5081675;28;20261;-85
2023/10/20 06:10:49;;;;;;;24.57;18.50;;;;;;;;;;5065871;28;20190;-85
2023/10/20 06:13:15;;;;;;;23.80;19.95;;;;;;;;;;5080207;28;20433;-88
2023/10/20 06:15:45;;;;;;;22.53;18.57;;;;;;;;;;5089874;28;20192;-86
2023/10/20 06:18:11;;;;;;;26.93;20.23;;;;;;;;;;5070065;28;20211;-86
2023/10/20 06:20:42;;;;;;;27.40;20.17;;;;;;;;;;5080830;28;20206;-84
2023/10/20 06:23:11;;;;;;;29.47;21.97;;;;;;;;;;5075452;28;20207;-85
2023/10/20 06:25:37;;;;;;;30.27;22.60;;;;;;;;;;5063861;28;20180;-85
2023/10/20 06:28:06;;;;;;;33.60;24.20;;;;;;;;;;5060119;28;20188;-85
2023/10/20 06:30:33;;;;;;;37.10;24.70;;;;;;;;;;5055462;28;20191;-84
2023/10/20 06:33:19;;;;;;;35.13;25.13;;;;;;;;;;5064523;28;20201;-87
2023/10/20 06:36:01;;;;;;;39.37;25.43;;;;;;;;;;5075560;28;20210;-84
2023/10/20 06:38:30;;;;;;;41.83;26.60;;;;;;;;;;5061891;28;20200;-85
2023/10/20 06:41:03;;;;;;;40.10;25.97;;;;;;;;;;5078690;28;20179;-85
2023/10/20 06:43:30;;;;;;;37.27;25.73;;;;;;;;;;5064777;28;20278;-84
2023/10/20 06:45:57;;;;;;;40.50;26.57;;;;;;;;;;5071761;28;20187;-84
2023/10/20 06:48:29;;;;;;;37.93;25.60;;;;;;;;;;5076407;28;20178;-87
2023/10/20 06:50:56;;;;;;;38.47;25.17;;;;;;;;;;5074288;28;20179;-83
2023/10/20 06:53:25;;;;;;;35.40;24.60;;;;;;;;;;5085486;28;20198;-83
2023/10/20 06:55:51;;;;;;;33.93;23.77;;;;;;;;;;5081484;28;20195;-84
2023/10/20 06:58:25;;;;;;;34.93;24.10;;;;;;;;;;5079720;28;20190;-84
2023/10/20 07:00:51;;;;;;;34.53;23.80;;;;;;;;;;5085833;28;20186;-84
2023/10/20 07:03:20;;;;;;;31.10;23.00;;;;;;;;;;5086573;28;20213;-85
2023/10/20 07:05:47;;;;;;;36.73;23.63;;;;;;;;;;5082285;28;20213;-84
2023/10/20 07:08:13;;;;;;;31.33;21.97;;;;;;;;;;5080151;28;20226;-84
2023/10/20 07:10:43;;;;;;;32.30;21.70;;;;;;;;;;5072784;28;20188;-85
2023/10/20 07:13:12;;;;;;;34.00;22.80;;;;;;;;;;5083444;28;20252;-85
2023/10/20 07:15:52;;;;;;;32.40;20.77;;;;;;;;;;5085402;28;20183;-86
2023/10/20 07:18:18;;;;;;;28.50;20.50;;;;;;;;;;5080991;28;20187;-84
2023/10/20 07:20:44;;;;;;;26.57;19.63;;;;;;;;;;5077317;28;20190;-84
2023/10/20 07:23:10;;;;;;;26.17;19.00;;;;;;;;;;5069373;28;20221;-84
2023/10/20 07:25:45;;;;;;;24.57;18.73;;;;;;;;;;5081493;28;20182;-84
2023/10/20 07:28:14;;;;;;;26.43;18.40;;;;;;;;;;5086155;28;20277;-85
2023/10/20 07:30:40;;;;;;;25.10;17.80;;;;;;;;;;5087832;28;20179;-84
2023/10/20 07:33:07;;;;;;;23.80;16.83;;;;;;;;;;5084932;28;20188;-85
2023/10/20 07:35:35;;;;;;;20.57;15.70;;;;;;;;;;5085761;28;20202;-84
2023/10/20 07:38:04;;;;;;;21.27;15.70;;;;;;;;;;5085781;28;20187;-84
2023/10/20 07:40:34;;;;;;;19.43;15.17;;;;;;;;;;5080585;28;20265;-85
2023/10/20 07:43:03;;;;;;;17.90;14.13;;;;;;;;;;5084021;28;20364;-85
2023/10/20 07:45:29;;;;;;;17.17;13.20;;;;;;;;;;5085633;28;20239;-85
2023/10/20 07:48:05;;;;;;;18.23;14.00;;;;;;;;;;5089003;28;20175;-85
2023/10/20 07:50:34;;;;;;;18.60;13.53;;;;;;;;;;5093759;28;20210;-85
2023/10/20 07:53:03;;;;;;;15.37;12.57;;;;;;;;;;5087007;28;20283;-84
2023/10/20 07:55:34;;;;;;;15.27;12.07;;;;;;;;;;5086896;28;20206;-83
2023/10/20 07:58:00;;;;;;;14.90;11.77;;;;;;;;;;5090912;28;20201;-84
2023/10/20 08:00:37;;;;;;;13.97;10.90;;;;;;;;;;5088819;28;20186;-85
2023/10/20 08:03:06;;;;;;;14.13;10.63;;;;;;;;;;5068579;28;20218;-85
2023/10/20 08:05:35;;;;;;;16.73;10.87;;;;;;;;;;5080793;28;20196;-85
2023/10/20 08:08:04;;;;;;;14.70;11.67;;;;;;;;;;5094977;28;20259;-85
2023/10/20 08:10:30;;;;;;;13.13;10.13;;;;;;;;;;5063688;28;20257;-85
2023/10/20 08:12:56;;;;;;;10.93;9.80;;;;;;;;;;5086161;28;20187;-85
2023/10/20 08:15:30;;;;;;;14.73;8.90;;;;;;;;;;5087632;28;20186;-84
2023/10/20 08:17:56;;;;;;;9.93;8.23;;;;;;;;;;5087549;28;20186;-85
2023/10/20 08:20:25;;;;;;;10.83;8.77;;;;;;;;;;5083230;28;20205;-86
2023/10/20 08:22:51;;;;;;;9.53;7.93;;;;;;;;;;5086966;28;20264;-85
2023/10/20 08:25:17;;;;;;;9.60;7.43;;;;;;;;;;5082663;28;20186;-84
2023/10/20 08:27:45;;;;;;;8.40;7.23;;;;;;;;;;5086836;28;20601;-85
2023/10/20 08:30:12;;;;;;;8.03;6.70;;;;;;;;;;5083005;28;20183;-85
2023/10/20 08:32:49;;;;;;;7.27;6.40;;;;;;;;;;5086189;28;20225;-85
2023/10/20 08:35:15;;;;;;;7.97;6.13;;;;;;;;;;5063553;28;20210;-85
2023/10/20 08:37:44;;;;;;;8.43;6.00;;;;;;;;;;5072004;28;20194;-86
2023/10/20 08:40:11;;;;;;;7.40;6.60;;;;;;;;;;5096523;28;20220;-85
2023/10/20 08:42:58;;;;;;;8.93;6.00;;;;;;;;;;5088183;28;20207;-84
2023/10/20 08:45:26;;;;;;;10.00;6.47;;;;;;;;;;5092456;28;20198;-85
2023/10/20 08:47:55;;;;;;;6.97;5.63;;;;;;;;;;5082661;28;20286;-84
2023/10/20 08:50:31;;;;;;;7.90;6.00;;;;;;;;;;5088286;28;20212;-85
2023/10/20 08:52:58;;;;;;;8.60;5.60;;;;;;;;;;5080788;28;20194;-85
2023/10/20 08:55:27;;;;;;;6.53;5.10;;;;;;;;;;5083646;28;20198;-84
2023/10/20 08:57:54;;;;;;;6.50;4.93;;;;;;;;;;5082411;28;20198;-85
2023/10/20 09:00:20;;;;;;;6.53;5.10;;;;;;;;;;5084071;28;20186;-86
2023/10/20 09:02:52;;;;;;;4.70;4.30;;;;;;;;;;5084414;28;20202;-85
2023/10/20 09:05:24;;;;;;;4.43;4.00;;;;;;;;;;5084023;28;20183;-85
2023/10/20 09:07:51;;;;;;;5.30;4.40;;;;;;;;;;5083376;28;20237;-85
2023/10/20 09:10:17;;;;;;;4.40;4.00;;;;;;;;;;5084405;28;20218;-85
2023/10/20 09:12:47;;;;;;;3.83;3.53;;;;;;;;;;5083477;28;20182;-84
2023/10/20 09:15:16;;;;;;;3.93;3.53;;;;;;;;;;5081967;28;20187;-85
2023/10/20 09:18:13;;;;;;;4.00;3.60;;;;;;;;;;5084263;28;20187;-85
2023/10/20 09:20:50;;;;;;;4.17;3.77;;;;;;;;;;5081042;28;20298;-86
2023/10/20 09:26:34;;;;;;;6.93;3.90;;;;;;;;;;5084315;28;20187;-87
2023/10/20 09:29:32;;;;;;;6.07;3.73;;;;;;;;;;5061578;28;20188;-88
2023/10/20 09:32:13;;;;;;;10.27;4.07;;;;;;;;;;5049872;28;20197;-87
2023/10/20 09:35:20;;;;;;;;;;;;;;;;;;;;;
2023/10/20 09:37:54;;;;;;;4.13;3.47;;;;;;;;;;5077408;28;20198;-87
2023/10/20 09:41:03;;;;;;;;;;;;;;;;;;;;;
2023/10/20 09:50:31;;;;;;;5.77;3.07;;;;;;;;;;5069577;28;20222;-87
2023/10/20 09:56:19;;;;;;;3.23;2.77;;;;;;;;;;5076880;28;20240;-88
2023/10/20 10:05:17;;;;;;;6.17;2.60;;;;;;;;;;5052420;28;20300;-87
2023/10/20 10:08:03;;;;;;;2.70;2.50;;;;;;;;;;5046511;28;20227;-86
2023/10/20 10:13:52;;;;;;;2.77;2.57;;;;;;;;;;5051931;28;20246;-86
2023/10/20 10:16:33;;;;;;;2.80;2.37;;;;;;;;;;5051470;28;20187;-87
2023/10/20 10:19:08;;;;;;;3.00;2.20;;;;;;;;;;5028007;28;20349;-87
2023/10/20 10:21:59;;;;;;;2.40;2.20;;;;;;;;;;5051581;28;20179;-87
2023/10/20 10:24:39;;;;;;;;;;;;;;;;;;;;;
2023/10/20 10:34:04;;;;;;;;;;;;;;;;;;;;;
2023/10/20 10:36:25;;;;;;;2.13;1.97;;;;;;;;;;5095262;28;20202;-86
2023/10/20 10:38:51;;;;;;;2.10;1.90;;;;;;;;;;5086838;28;20191;-87
2023/10/20 10:41:44;;;;;;;2.53;2.20;;;;;;;;;;5091309;28;20185;-86
2023/10/20 10:44:12;;;;;;;2.07;1.80;;;;;;;;;;5101370;28;20343;-85
2023/10/20 10:46:51;;;;;;;2.47;2.27;;;;;;;;;;5083909;28;20186;-85
2023/10/20 10:49:17;;;;;;;2.20;2.00;;;;;;;;;;5071929;28;20198;-86
2023/10/20 10:51:47;;;;;;;3.50;1.90;;;;;;;;;;5093051;28;20227;-89
2023/10/20 10:54:17;;;;;;;4.77;2.20;;;;;;;;;;5100184;28;20178;-87
2023/10/20 10:56:45;;;;;;;2.03;1.83;;;;;;;;;;5099858;28;20182;-87
2023/10/20 10:59:19;;;;;;;2.03;1.83;;;;;;;;;;5100706;28;20228;-87
2023/10/20 11:01:46;;;;;;;2.10;1.90;;;;;;;;;;5100328;28;20178;-85
2023/10/20 11:04:12;;;;;;;3.90;1.87;;;;;;;;;;5099413;28;20233;-86
2023/10/20 11:06:38;;;;;;;1.90;1.80;;;;;;;;;;5099675;28;20265;-87
2023/10/20 11:09:10;;;;;;;1.90;1.70;;;;;;;;;;5096059;28;20230;-87
2023/10/20 11:11:49;;;;;;;2.20;2.00;;;;;;;;;;5096641;28;20179;-87
2023/10/20 11:14:19;;;;;;;2.47;1.60;;;;;;;;;;5096516;28;20182;-87
2023/10/20 11:16:47;;;;;;;3.90;1.90;;;;;;;;;;5096903;28;20182;-87
2023/10/20 11:19:17;;;;;;;1.90;1.70;;;;;;;;;;5096545;28;20182;-89
2023/10/20 11:21:52;;;;;;;2.00;1.80;;;;;;;;;;5096464;28;20179;-88
2023/10/20 11:24:30;;;;;;;2.13;1.50;;;;;;;;;;5096232;28;20205;-88
2023/10/20 11:27:01;;;;;;;3.13;1.90;;;;;;;;;;5091261;28;20237;-88
2023/10/20 11:29:28;;;;;;;4.40;1.80;;;;;;;;;;5075957;28;20274;-87
2023/10/20 11:31:56;;;;;;;2.17;1.97;;;;;;;;;;5064550;28;20317;-88
2023/10/20 11:34:31;;;;;;;1.77;1.67;;;;;;;;;;5091118;28;20293;-87
2023/10/20 11:37:02;;;;;;;2.87;1.77;;;;;;;;;;5079931;28;20312;-88
2023/10/20 11:39:28;;;;;;;1.80;1.70;;;;;;;;;;5082896;28;20198;-88
2023/10/20 11:41:57;;;;;;;1.60;1.50;;;;;;;;;;5091969;28;20278;-87
2023/10/20 11:44:24;;;;;;;2.10;1.80;;;;;;;;;;5087814;28;20279;-87
2023/10/20 11:47:10;;;;;;;2.63;1.60;;;;;;;;;;5093410;28;20182;-86
2023/10/20 11:49:37;;;;;;;1.50;1.40;;;;;;;;;;5064859;28;20184;-88
2023/10/20 11:55:12;;;;;;;1.30;1.20;;;;;;;;;;5063389;28;20225;-87
2023/10/20 11:57:41;;;;;;;2.00;1.60;;;;;;;;;;5087570;28;20274;-89
2023/10/20 12:00:10;;;;;;;1.98;1.73;;;;;;;;;;5083353;28;20440;-86
2023/10/20 12:02:44;;;;;;;1.50;1.40;;;;;;;;;;5075402;28;20253;-87
2023/10/20 12:05:29;;;;;;;1.40;1.30;;;;;;;;;;5073663;28;20243;-86
2023/10/20 12:08:00;;;;;;;1.50;1.40;;;;;;;;;;5083711;28;20229;-86
2023/10/20 12:10:41;;;;;;;1.50;1.40;;;;;;;;;;5072037;28;20228;-87
2023/10/20 12:13:18;;;;;;;1.43;1.30;;;;;;;;;;5081033;28;20188;-87
2023/10/20 12:15:44;;;;;;;1.50;1.40;;;;;;;;;;5091102;28;20182;-87
2023/10/20 12:18:17;;;;;;;1.40;1.30;;;;;;;;;;5080580;28;20201;-87
2023/10/20 12:20:47;;;;;;;1.50;1.40;;;;;;;;;;5074857;28;20199;-88
2023/10/20 12:23:15;;;;;;;1.87;1.70;;;;;;;;;;5091370;28;20229;-88
2023/10/20 12:25:41;;;;;;;1.60;1.40;;;;;;;;;;5090483;28;20190;-88
2023/10/20 12:28:10;;;;;;;4.40;1.30;;;;;;;;;;5080345;28;20266;-87
2023/10/20 12:30:36;;;;;;;1.53;1.43;;;;;;;;;;5075384;28;20181;-87
2023/10/20 12:33:02;;;;;;;1.40;1.30;;;;;;;;;;5094098;28;20185;-87
2023/10/20 12:35:31;;;;;;;1.40;1.30;;;;;;;;;;5093203;28;20205;-87
2023/10/20 12:37:57;;;;;;;1.60;1.50;;;;;;;;;;5074797;28;20179;-87
2023/10/20 12:40:25;;;;;;;1.87;1.40;;;;;;;;;;5066008;28;20180;-86
2023/10/20 12:42:53;;;;;;;1.53;1.40;;;;;;;;;;5054956;28;20208;-86
2023/10/20 12:45:19;;;;;;;1.70;1.60;;;;;;;;;;5054957;28;20183;-86
2023/10/20 12:47:55;;;;;;;1.77;1.67;;;;;;;;;;5054822;28;20184;-86
2023/10/20 12:50:21;;;;;;;2.07;1.30;;;;;;;;;;5054427;28;20185;-86
2023/10/20 12:52:47;;;;;;;1.77;1.67;;;;;;;;;;5054490;28;20176;-87
2023/10/20 12:55:19;;;;;;;4.20;1.57;;;;;;;;;;5054368;28;20186;-88
2023/10/20 12:57:56;;;;;;;2.13;1.60;;;;;;;;;;5055064;28;20265;-88
2023/10/20 13:00:30;;;;;;;2.80;1.43;;;;;;;;;;5093643;28;20221;-88
2023/10/20 13:03:08;;;;;;;1.80;1.50;;;;;;;;;;5074252;28;20226;-88
2023/10/20 13:06:11;;;;;;;;;;;;;;;;;;;;;
2023/10/20 13:08:55;;;;;;;2.90;1.40;;;;;;;;;;5094666;28;20316;-88
2023/10/20 13:11:30;;;;;;;2.53;1.30;;;;;;;;;;5077158;28;20190;-88
2023/10/20 13:14:04;;;;;;;3.27;1.30;;;;;;;;;;5073748;28;20326;-89
2023/10/20 13:16:32;;;;;;;2.97;1.17;;;;;;;;;;5060597;28;20277;-89
2023/10/20 13:19:01;;;;;;;1.40;1.10;;;;;;;;;;5076764;28;20175;-88
2023/10/20 13:21:33;;;;;;;1.70;1.23;;;;;;;;;;5077422;28;20183;-89
2023/10/20 13:24:02;;;;;;;1.50;1.37;;;;;;;;;;5076977;28;20263;-88
2023/10/20 13:26:31;;;;;;;2.77;2.00;;;;;;;;;;5077567;28;20221;-89
2023/10/20 13:29:13;;;;;;;1.90;1.40;;;;;;;;;;5077105;28;20171;-89
2023/10/20 13:31:41;;;;;;;1.17;0.93;;;;;;;;;;5061029;28;20232;-88
2023/10/20 13:34:28;;;;;;;1.27;1.17;;;;;;;;;;5040486;28;20211;-88
2023/10/20 13:37:00;;;;;;;1.47;1.10;;;;;;;;;;5078599;28;20249;-88
2023/10/20 13:39:32;;;;;;;1.37;1.10;;;;;;;;;;5084954;28;20189;-89
2023/10/20 13:42:16;;;;;;;1.80;1.20;;;;;;;;;;5076772;28;20261;-88
2023/10/20 13:44:54;;;;;;;1.30;1.20;;;;;;;;;;5061831;28;20189;-88
2023/10/20 13:47:52;;;;;;;1.47;1.37;;;;;;;;;;5077157;28;20178;-88
2023/10/20 13:50:27;;;;;;;1.47;1.37;;;;;;;;;;5037087;28;20183;-88
2023/10/20 13:53:05;;;;;;;1.60;1.50;;;;;;;;;;5076310;28;20178;-89
2023/10/20 13:55:52;;;;;;;1.43;1.33;;;;;;;;;;5076474;28;20296;-89
2023/10/20 14:01:11;;;;;;;2.50;1.80;;;;;;;;;;5025876;28;20193;-88
2023/10/20 14:09:16;;;;;;;4.80;2.23;;;;;;;;;;4979500;28;20221;-89
2023/10/20 14:12:21;;;;;;;3.43;2.03;;;;;;;;;;4957273;28;20249;-89
2023/10/20 14:14:49;;;;;;;2.80;1.80;;;;;;;;;;4988052;28;20185;-89
2023/10/20 14:17:32;;;;;;;3.13;2.00;;;;;;;;;;4996541;28;20184;-91
2023/10/20 14:20:01;;;;;;;2.70;1.93;;;;;;;;;;4986971;28;20221;-89
2023/10/20 14:41:22;;;;;;;2.00;1.90;;;;;;;;;;4993096;28;20185;-91
2023/10/20 14:44:27;;;;;;;;;;;;;;;;;;;;;
2023/10/20 14:50:26;;;;;;;3.83;2.10;;;;;;;;;;4899111;29;20181;-90
2023/10/20 14:53:15;;;;;;;2.43;1.97;;;;;;;;;;4895770;29;20273;-90
2023/10/20 14:56:13;;;;;;;;;;;;;;;;;;;;;
2023/10/20 15:23:25;;;;;;;2.43;2.23;;;;;;;;;;4947340;28;20347;-90
2023/10/20 15:26:22;;;;;;;;;;;;;;;;;;;;;
2023/10/20 15:29:17;;;;;;;2.87;2.60;;;;;;;;;;5070267;28;20186;-90
2023/10/20 15:32:15;;;;;;;;;;;;;;;;;;;;;
2023/10/20 15:46:56;;;;;;;3.10;2.90;;;;;;;;;;5015821;28;20233;-91
2023/10/20 15:55:55;;;;;;;3.57;3.27;;;;;;;;;;5057096;28;20171;-90
2023/10/20 16:07:14;;;;;;;3.93;3.63;;;;;;;;;;5076699;28;20158;-91
2023/10/20 16:09:42;;;;;;;4.70;3.47;;;;;;;;;;5062100;28;20227;-90
2023/10/20 16:12:18;;;;;;;;;;;;;;;;;;;;;
2023/10/20 16:14:58;;;;;;;4.47;3.73;;;;;;;;;;5111114;28;20249;-90
2023/10/20 16:29:45;;;;;;;4.57;3.47;;;;;;;;;;5087307;28;20183;-89
2023/10/20 16:35:24;;;;;;;6.60;5.90;;;;;;;;;;5061770;28;20211;-89
2023/10/20 16:38:01;;;;;;;7.07;6.47;;;;;;;;;;5094858;28;20302;-89
2023/10/20 16:40:37;;;;;;;10.40;8.70;;;;;;;;;;5059228;28;20186;-89
2023/10/20 16:59:11;;;;;;;;;;;;;;;;;;;;;
2023/10/20 17:01:50;;;;;;;;;;;;;;;;;;;;;
2023/10/20 17:04:30;;;;;;;5.67;5.07;;;;;;;;;;5116034;28;20200;-88
2023/10/20 17:07:23;;;;;;;7.43;6.73;;;;;;;;;;5073500;28;20328;-89
2023/10/20 17:13:34;;;;;;;8.67;7.87;;;;;;;;;;4984581;28;20252;-87
2023/10/20 17:25:41;;;;;;;10.60;9.70;;;;;;;;;;4935565;29;20214;-87
2023/10/20 17:28:11;;;;;;;9.33;8.53;;;;;;;;;;4946381;28;20179;-86
2023/10/20 17:30:39;;;;;;;8.93;8.13;;;;;;;;;;4974410;28;20202;-87
2023/10/20 17:33:08;;;;;;;8.87;7.97;;;;;;;;;;4967548;28;20184;-85
2023/10/20 17:35:37;;;;;;;10.13;8.37;;;;;;;;;;5022968;28;20211;-86
2023/10/20 17:38:04;;;;;;;9.43;8.63;;;;;;;;;;5056362;28;20195;-86
2023/10/20 17:40:34;;;;;;;10.97;9.97;;;;;;;;;;5069246;28;20179;-88
2023/10/20 17:43:00;;;;;;;10.47;9.47;;;;;;;;;;5060338;28;20215;-87
2023/10/20 17:45:26;;;;;;;12.53;11.33;;;;;;;;;;5064020;28;20228;-87
2023/10/20 17:47:53;;;;;;;12.77;11.67;;;;;;;;;;5077350;28;20231;-87
2023/10/20 17:50:35;;;;;;;13.63;12.53;;;;;;;;;;5076245;28;20179;-88
2023/10/20 17:53:10;;;;;;;13.97;12.77;;;;;;;;;;5079218;28;20191;-90
2023/10/20 17:55:47;;;;;;;17.15;15.60;;;;;;;;;;5067920;28;20401;-87
2023/10/20 17:58:16;;;;;;;14.33;13.10;;;;;;;;;;5057377;28;20179;-88
2023/10/20 18:01:18;;;;;;;14.87;13.57;;;;;;;;;;5067531;28;20236;-94
2023/10/20 18:03:45;;;;;;;15.10;13.70;;;;;;;;;;5090544;28;20210;-87
2023/10/20 18:06:12;;;;;;;14.23;12.83;;;;;;;;;;5066712;28;20210;-89
2023/10/20 18:08:44;;;;;;;14.33;12.93;;;;;;;;;;5042581;28;20176;-88
2023/10/20 18:11:11;;;;;;;15.20;13.67;;;;;;;;;;5074141;28;20175;-88
2023/10/20 18:13:42;;;;;;;15.97;14.30;;;;;;;;;;5063895;28;20241;-89
2023/10/20 18:16:12;;;;;;;16.37;14.83;;;;;;;;;;5072085;28;20239;-89
2023/10/20 18:18:51;;;;;;;17.10;15.50;;;;;;;;;;5076574;28;20269;-87